sensor_id;sensor_type;location;lat;lon;timestamp;P1;durP1;ratioP1;P2;durP2;ratioP2
51020;SDS011;38907;45.562;8.856;2023-06-10T00:00:44;14.13;;;8.20;;
51020;SDS011;38907;45.562;8.856;2023-06-10T00:05:46;12.90;;;8.80;;
51020;SDS011;38907;45.562;8.856;2023-06-10T00:10:49;12.70;;;9.20;;
51020;SDS011;38907;45.562;8.856;2023-06-10T00:15:51;13.10;;;9.90;;
51020;SDS011;38907;45.562;8.856;2023-06-10T00:20:53;15.27;;;9.23;;
51020;SDS011;38907;45.562;8.856;2023-06-10T00:25:56;12.55;;;8.55;;
51020;SDS011;38907;45.562;8.856;2023-06-10T00:30:59;17.80;;;9.25;;
51020;SDS011;38907;45.562;8.856;2023-06-10T00:36:00;12.87;;;9.53;;
51020;SDS011;38907;45.562;8.856;2023-06-10T00:41:04;11.70;;;9.20;;
51020;SDS011;38907;45.562;8.856;2023-06-10T00:46:06;13.70;;;8.85;;
51020;SDS011;38907;45.562;8.856;2023-06-10T00:51:07;15.83;;;10.07;;
51020;SDS011;38907;45.562;8.856;2023-06-10T00:56:11;11.35;;;9.45;;
51020;SDS011;38907;45.562;8.856;2023-06-10T01:01:15;15.15;;;9.95;;
51020;SDS011;38907;45.562;8.856;2023-06-10T01:06:20;13.10;;;9.98;;
51020;SDS011;38907;45.562;8.856;2023-06-10T01:11:34;11.43;;;8.27;;
51020;SDS011;38907;45.562;8.856;2023-06-10T01:16:40;12.43;;;8.88;;
51020;SDS011;38907;45.562;8.856;2023-06-10T01:21:44;13.00;;;9.30;;
51020;SDS011;38907;45.562;8.856;2023-06-10T01:26:48;12.40;;;8.52;;
51020;SDS011;38907;45.562;8.856;2023-06-10T01:31:53;15.30;;;8.52;;
51020;SDS011;38907;45.562;8.856;2023-06-10T01:37:04;10.73;;;8.45;;
51020;SDS011;38907;45.562;8.856;2023-06-10T01:42:07;13.30;;;8.65;;
51020;SDS011;38907;45.562;8.856;2023-06-10T01:47:11;11.93;;;8.73;;
51020;SDS011;38907;45.562;8.856;2023-06-10T01:52:14;16.27;;;10.07;;
51020;SDS011;38907;45.562;8.856;2023-06-10T01:57:16;10.23;;;7.88;;
51020;SDS011;38907;45.562;8.856;2023-06-10T02:02:18;14.48;;;8.48;;
51020;SDS011;38907;45.562;8.856;2023-06-10T02:07:23;14.20;;;8.35;;
51020;SDS011;38907;45.562;8.856;2023-06-10T02:12:25;14.05;;;8.00;;
51020;SDS011;38907;45.562;8.856;2023-06-10T02:17:27;11.90;;;7.90;;
51020;SDS011;38907;45.562;8.856;2023-06-10T02:22:31;10.82;;;8.05;;
51020;SDS011;38907;45.562;8.856;2023-06-10T02:27:33;11.98;;;8.30;;
51020;SDS011;38907;45.562;8.856;2023-06-10T02:32:35;12.17;;;7.90;;
51020;SDS011;38907;45.562;8.856;2023-06-10T02:37:38;9.70;;;7.53;;
51020;SDS011;38907;45.562;8.856;2023-06-10T02:42:40;11.60;;;7.78;;
51020;SDS011;38907;45.562;8.856;2023-06-10T02:47:42;11.37;;;7.90;;
51020;SDS011;38907;45.562;8.856;2023-06-10T02:52:45;12.70;;;9.50;;
51020;SDS011;38907;45.562;8.856;2023-06-10T02:57:47;12.48;;;8.77;;
51020;SDS011;38907;45.562;8.856;2023-06-10T03:02:49;12.77;;;9.73;;
51020;SDS011;38907;45.562;8.856;2023-06-10T03:07:52;12.50;;;9.53;;
51020;SDS011;38907;45.562;8.856;2023-06-10T03:12:54;14.05;;;8.82;;
51020;SDS011;38907;45.562;8.856;2023-06-10T03:17:56;12.33;;;9.10;;
51020;SDS011;38907;45.562;8.856;2023-06-10T03:23:00;11.03;;;9.27;;
51020;SDS011;38907;45.562;8.856;2023-06-10T03:28:02;12.75;;;9.85;;
51020;SDS011;38907;45.562;8.856;2023-06-10T03:33:04;19.67;;;10.18;;
51020;SDS011;38907;45.562;8.856;2023-06-10T03:38:07;18.03;;;9.57;;
51020;SDS011;38907;45.562;8.856;2023-06-10T03:43:09;16.55;;;10.20;;
51020;SDS011;38907;45.562;8.856;2023-06-10T03:48:11;16.70;;;10.30;;
51020;SDS011;38907;45.562;8.856;2023-06-10T03:53:14;14.30;;;10.47;;
51020;SDS011;38907;45.562;8.856;2023-06-10T03:58:16;15.20;;;10.07;;
51020;SDS011;38907;45.562;8.856;2023-06-10T04:03:18;14.73;;;10.97;;
51020;SDS011;38907;45.562;8.856;2023-06-10T04:08:22;14.73;;;10.27;;
51020;SDS011;38907;45.562;8.856;2023-06-10T04:13:24;13.38;;;9.82;;
51020;SDS011;38907;45.562;8.856;2023-06-10T04:18:26;12.43;;;10.37;;
51020;SDS011;38907;45.562;8.856;2023-06-10T04:23:29;13.93;;;10.30;;
51020;SDS011;38907;45.562;8.856;2023-06-10T04:28:31;13.90;;;10.88;;
51020;SDS011;38907;45.562;8.856;2023-06-10T04:33:33;15.87;;;12.17;;
51020;SDS011;38907;45.562;8.856;2023-06-10T04:38:36;21.38;;;11.23;;
51020;SDS011;38907;45.562;8.856;2023-06-10T04:43:38;21.02;;;11.32;;
51020;SDS011;38907;45.562;8.856;2023-06-10T04:48:40;17.20;;;11.27;;
51020;SDS011;38907;45.562;8.856;2023-06-10T04:53:43;24.13;;;12.80;;
51020;SDS011;38907;45.562;8.856;2023-06-10T04:58:45;17.77;;;12.70;;
51020;SDS011;38907;45.562;8.856;2023-06-10T05:03:47;23.17;;;12.13;;
51020;SDS011;38907;45.562;8.856;2023-06-10T05:08:50;18.13;;;13.73;;
51020;SDS011;38907;45.562;8.856;2023-06-10T05:13:52;19.58;;;12.98;;
51020;SDS011;38907;45.562;8.856;2023-06-10T05:18:54;19.37;;;13.70;;
51020;SDS011;38907;45.562;8.856;2023-06-10T05:23:57;21.57;;;14.40;;
51020;SDS011;38907;45.562;8.856;2023-06-10T05:28:59;20.65;;;14.60;;
51020;SDS011;38907;45.562;8.856;2023-06-10T05:34:01;17.93;;;13.20;;
51020;SDS011;38907;45.562;8.856;2023-06-10T05:39:04;17.83;;;13.87;;
51020;SDS011;38907;45.562;8.856;2023-06-10T05:44:06;17.90;;;13.18;;
51020;SDS011;38907;45.562;8.856;2023-06-10T05:49:08;16.83;;;13.23;;
51020;SDS011;38907;45.562;8.856;2023-06-10T05:54:11;16.33;;;12.50;;
51020;SDS011;38907;45.562;8.856;2023-06-10T05:59:13;14.50;;;11.43;;
51020;SDS011;38907;45.562;8.856;2023-06-10T06:04:15;16.27;;;12.27;;
51020;SDS011;38907;45.562;8.856;2023-06-10T06:09:18;20.42;;;12.50;;
51020;SDS011;38907;45.562;8.856;2023-06-10T06:14:20;14.38;;;11.02;;
51020;SDS011;38907;45.562;8.856;2023-06-10T06:19:22;16.27;;;11.63;;
51020;SDS011;38907;45.562;8.856;2023-06-10T06:24:25;15.80;;;11.93;;
51020;SDS011;38907;45.562;8.856;2023-06-10T06:29:27;13.00;;;10.95;;
51020;SDS011;38907;45.562;8.856;2023-06-10T06:39:33;13.63;;;9.68;;
51020;SDS011;38907;45.562;8.856;2023-06-10T06:44:35;16.25;;;8.68;;
51020;SDS011;38907;45.562;8.856;2023-06-10T06:49:37;10.80;;;8.40;;
51020;SDS011;38907;45.562;8.856;2023-06-10T06:54:40;15.63;;;9.48;;
51020;SDS011;38907;45.562;8.856;2023-06-10T06:59:42;10.65;;;8.20;;
51020;SDS011;38907;45.562;8.856;2023-06-10T07:04:44;11.10;;;7.20;;
51020;SDS011;38907;45.562;8.856;2023-06-10T07:09:50;11.88;;;8.55;;
51020;SDS011;38907;45.562;8.856;2023-06-10T07:14:52;14.05;;;8.38;;
51020;SDS011;38907;45.562;8.856;2023-06-10T07:19:54;13.10;;;8.40;;
51020;SDS011;38907;45.562;8.856;2023-06-10T07:24:58;10.10;;;7.63;;
51020;SDS011;38907;45.562;8.856;2023-06-10T07:30:00;14.63;;;8.75;;
51020;SDS011;38907;45.562;8.856;2023-06-10T07:35:02;10.33;;;6.20;;
51020;SDS011;38907;45.562;8.856;2023-06-10T07:50:10;12.30;;;6.50;;
51020;SDS011;38907;45.562;8.856;2023-06-10T07:55:14;8.50;;;6.00;;
51020;SDS011;38907;45.562;8.856;2023-06-10T08:00:16;11.90;;;6.28;;
51020;SDS011;38907;45.562;8.856;2023-06-10T08:05:18;10.02;;;6.03;;
51020;SDS011;38907;45.562;8.856;2023-06-10T08:10:23;8.13;;;5.82;;
51020;SDS011;38907;45.562;8.856;2023-06-10T08:15:25;7.60;;;5.30;;
51020;SDS011;38907;45.562;8.856;2023-06-10T08:20:27;13.93;;;5.68;;
51020;SDS011;38907;45.562;8.856;2023-06-10T08:25:30;10.38;;;5.20;;
51020;SDS011;38907;45.562;8.856;2023-06-10T08:30:32;9.73;;;5.43;;
51020;SDS011;38907;45.562;8.856;2023-06-10T08:35:33;6.07;;;4.38;;
51020;SDS011;38907;45.562;8.856;2023-06-10T08:40:37;11.25;;;5.10;;
51020;SDS011;38907;45.562;8.856;2023-06-10T08:45:39;7.13;;;4.75;;
51020;SDS011;38907;45.562;8.856;2023-06-10T08:50:46;8.38;;;5.78;;
51020;SDS011;38907;45.562;8.856;2023-06-10T08:55:53;6.30;;;3.80;;
51020;SDS011;38907;45.562;8.856;2023-06-10T09:00:58;7.70;;;5.00;;
51020;SDS011;38907;45.562;8.856;2023-06-10T09:06:00;5.95;;;4.57;;
51020;SDS011;38907;45.562;8.856;2023-06-10T09:11:06;7.90;;;3.97;;
51020;SDS011;38907;45.562;8.856;2023-06-10T09:16:08;6.57;;;4.75;;
51020;SDS011;38907;45.562;8.856;2023-06-10T09:21:11;6.35;;;3.67;;
51020;SDS011;38907;45.562;8.856;2023-06-10T09:26:15;7.10;;;4.72;;
51020;SDS011;38907;45.562;8.856;2023-06-10T09:31:17;8.10;;;5.10;;
51020;SDS011;38907;45.562;8.856;2023-06-10T09:36:22;9.20;;;6.35;;
51020;SDS011;38907;45.562;8.856;2023-06-10T09:41:32;7.60;;;5.80;;
51020;SDS011;38907;45.562;8.856;2023-06-10T09:46:35;9.48;;;6.30;;
51020;SDS011;38907;45.562;8.856;2023-06-10T09:51:37;8.02;;;6.22;;
51020;SDS011;38907;45.562;8.856;2023-06-10T09:56:40;15.63;;;9.20;;
51020;SDS011;38907;45.562;8.856;2023-06-10T10:01:42;8.93;;;7.93;;
51020;SDS011;38907;45.562;8.856;2023-06-10T10:06:44;10.20;;;7.50;;
51020;SDS011;38907;45.562;8.856;2023-06-10T10:11:47;12.20;;;10.48;;
51020;SDS011;38907;45.562;8.856;2023-06-10T10:16:50;11.95;;;10.10;;
51020;SDS011;38907;45.562;8.856;2023-06-10T10:21:55;14.07;;;10.68;;
51020;SDS011;38907;45.562;8.856;2023-06-10T10:27:03;15.90;;;8.48;;
51020;SDS011;38907;45.562;8.856;2023-06-10T10:32:12;12.40;;;9.48;;
51020;SDS011;38907;45.562;8.856;2023-06-10T10:37:15;11.57;;;9.68;;
51020;SDS011;38907;45.562;8.856;2023-06-10T10:42:20;12.98;;;9.05;;
51020;SDS011;38907;45.562;8.856;2023-06-10T10:47:22;15.70;;;9.40;;
51020;SDS011;38907;45.562;8.856;2023-06-10T10:57:57;18.05;;;9.88;;
51020;SDS011;38907;45.562;8.856;2023-06-10T11:03:03;13.23;;;10.93;;
51020;SDS011;38907;45.562;8.856;2023-06-10T11:08:07;15.77;;;11.13;;
51020;SDS011;38907;45.562;8.856;2023-06-10T11:13:12;15.70;;;12.27;;
51020;SDS011;38907;45.562;8.856;2023-06-10T11:18:19;18.98;;;13.93;;
51020;SDS011;38907;45.562;8.856;2023-06-10T11:23:33;17.95;;;14.10;;
51020;SDS011;38907;45.562;8.856;2023-06-10T11:28:40;18.42;;;14.40;;
51020;SDS011;38907;45.562;8.856;2023-06-10T11:33:43;18.63;;;14.65;;
51020;SDS011;38907;45.562;8.856;2023-06-10T11:38:45;20.20;;;15.52;;
51020;SDS011;38907;45.562;8.856;2023-06-10T11:48:51;19.50;;;15.15;;
51020;SDS011;38907;45.562;8.856;2023-06-10T11:53:54;18.50;;;14.30;;
51020;SDS011;38907;45.562;8.856;2023-06-10T11:58:58;15.40;;;12.10;;
51020;SDS011;38907;45.562;8.856;2023-06-10T12:04:04;15.38;;;12.77;;
51020;SDS011;38907;45.562;8.856;2023-06-10T12:09:12;13.65;;;10.63;;
51020;SDS011;38907;45.562;8.856;2023-06-10T12:14:16;13.00;;;10.98;;
51020;SDS011;38907;45.562;8.856;2023-06-10T12:19:54;15.93;;;12.23;;
51020;SDS011;38907;45.562;8.856;2023-06-10T12:24:57;19.95;;;15.63;;
51020;SDS011;38907;45.562;8.856;2023-06-10T12:30:05;16.95;;;15.07;;
51020;SDS011;38907;45.562;8.856;2023-06-10T12:35:08;22.67;;;17.55;;
51020;SDS011;38907;45.562;8.856;2023-06-10T12:40:12;20.08;;;15.50;;
51020;SDS011;38907;45.562;8.856;2023-06-10T12:45:15;16.42;;;14.55;;
51020;SDS011;38907;45.562;8.856;2023-06-10T12:50:28;16.15;;;14.45;;
51020;SDS011;38907;45.562;8.856;2023-06-10T12:55:31;17.98;;;14.57;;
51020;SDS011;38907;45.562;8.856;2023-06-10T13:00:35;17.10;;;13.38;;
51020;SDS011;38907;45.562;8.856;2023-06-10T13:05:37;15.65;;;12.52;;
51020;SDS011;38907;45.562;8.856;2023-06-10T13:15:43;37.80;;;21.63;;
51020;SDS011;38907;45.562;8.856;2023-06-10T13:20:45;28.42;;;16.55;;
51020;SDS011;38907;45.562;8.856;2023-06-10T13:25:47;16.50;;;12.82;;
51020;SDS011;38907;45.562;8.856;2023-06-10T13:30:50;16.75;;;12.25;;
51020;SDS011;38907;45.562;8.856;2023-06-10T13:35:52;17.23;;;13.02;;
51020;SDS011;38907;45.562;8.856;2023-06-10T13:40:54;19.00;;;13.30;;
51020;SDS011;38907;45.562;8.856;2023-06-10T13:45:57;18.52;;;14.05;;
51020;SDS011;38907;45.562;8.856;2023-06-10T13:50:59;26.25;;;18.40;;
51020;SDS011;38907;45.562;8.856;2023-06-10T13:56:01;13.88;;;10.77;;
51020;SDS011;38907;45.562;8.856;2023-06-10T14:01:04;23.55;;;13.45;;
51020;SDS011;38907;45.562;8.856;2023-06-10T14:06:06;19.52;;;11.20;;
51020;SDS011;38907;45.562;8.856;2023-06-10T14:16:12;9.32;;;6.80;;
51020;SDS011;38907;45.562;8.856;2023-06-10T14:21:14;8.90;;;7.60;;
51020;SDS011;38907;45.562;8.856;2023-06-10T14:26:15;9.15;;;7.95;;
51020;SDS011;38907;45.562;8.856;2023-06-10T14:31:19;9.32;;;7.85;;
51020;SDS011;38907;45.562;8.856;2023-06-10T14:36:21;8.10;;;7.28;;
51020;SDS011;38907;45.562;8.856;2023-06-10T14:41:23;9.68;;;5.93;;
51020;SDS011;38907;45.562;8.856;2023-06-10T14:46:26;8.27;;;5.93;;
51020;SDS011;38907;45.562;8.856;2023-06-10T14:51:28;7.65;;;4.30;;
51020;SDS011;38907;45.562;8.856;2023-06-10T14:56:29;4.35;;;3.95;;
51020;SDS011;38907;45.562;8.856;2023-06-10T15:01:33;5.22;;;3.78;;
51020;SDS011;38907;45.562;8.856;2023-06-10T15:06:35;6.95;;;3.78;;
51020;SDS011;38907;45.562;8.856;2023-06-10T15:11:36;6.00;;;4.38;;
51020;SDS011;38907;45.562;8.856;2023-06-10T15:16:40;4.70;;;3.90;;
51020;SDS011;38907;45.562;8.856;2023-06-10T15:21:42;6.50;;;5.47;;
51020;SDS011;38907;45.562;8.856;2023-06-10T15:26:44;7.40;;;4.97;;
51020;SDS011;38907;45.562;8.856;2023-06-10T15:36:49;4.88;;;4.28;;
51020;SDS011;38907;45.562;8.856;2023-06-10T15:41:51;6.13;;;4.40;;
51020;SDS011;38907;45.562;8.856;2023-06-10T15:46:54;6.70;;;4.68;;
51020;SDS011;38907;45.562;8.856;2023-06-10T15:51:56;6.38;;;5.07;;
51020;SDS011;38907;45.562;8.856;2023-06-10T15:56:58;6.40;;;5.20;;
51020;SDS011;38907;45.562;8.856;2023-06-10T16:02:04;6.93;;;5.70;;
51020;SDS011;38907;45.562;8.856;2023-06-10T16:07:07;8.80;;;4.45;;
51020;SDS011;38907;45.562;8.856;2023-06-10T16:12:08;6.82;;;4.53;;
51020;SDS011;38907;45.562;8.856;2023-06-10T16:17:12;6.72;;;4.15;;
51020;SDS011;38907;45.562;8.856;2023-06-10T16:22:14;7.95;;;4.20;;
51020;SDS011;38907;45.562;8.856;2023-06-10T16:27:16;5.70;;;4.75;;
51020;SDS011;38907;45.562;8.856;2023-06-10T16:32:20;5.05;;;4.10;;
51020;SDS011;38907;45.562;8.856;2023-06-10T16:37:22;6.20;;;5.18;;
51020;SDS011;38907;45.562;8.856;2023-06-10T16:42:24;6.70;;;3.65;;
51020;SDS011;38907;45.562;8.856;2023-06-10T16:47:27;5.38;;;3.63;;
51020;SDS011;38907;45.562;8.856;2023-06-10T16:52:29;5.57;;;3.58;;
51020;SDS011;38907;45.562;8.856;2023-06-10T17:02:34;4.93;;;3.72;;
51020;SDS011;38907;45.562;8.856;2023-06-10T17:07:36;5.75;;;3.90;;
51020;SDS011;38907;45.562;8.856;2023-06-10T17:12:38;11.77;;;4.40;;
51020;SDS011;38907;45.562;8.856;2023-06-10T17:17:41;15.27;;;5.93;;
51020;SDS011;38907;45.562;8.856;2023-06-10T17:22:43;7.32;;;5.47;;
51020;SDS011;38907;45.562;8.856;2023-06-10T17:27:45;16.67;;;4.65;;
51020;SDS011;38907;45.562;8.856;2023-06-10T17:32:48;7.20;;;4.38;;
51020;SDS011;38907;45.562;8.856;2023-06-10T17:37:51;4.78;;;4.15;;
51020;SDS011;38907;45.562;8.856;2023-06-10T17:42:52;8.88;;;3.97;;
51020;SDS011;38907;45.562;8.856;2023-06-10T17:47:56;3.97;;;3.58;;
51020;SDS011;38907;45.562;8.856;2023-06-10T17:52:57;5.63;;;4.28;;
51020;SDS011;38907;45.562;8.856;2023-06-10T17:58:00;5.60;;;4.00;;
51020;SDS011;38907;45.562;8.856;2023-06-10T18:03:03;4.00;;;3.60;;
51020;SDS011;38907;45.562;8.856;2023-06-10T18:08:05;5.15;;;4.18;;
51020;SDS011;38907;45.562;8.856;2023-06-10T18:13:07;4.53;;;4.13;;
51020;SDS011;38907;45.562;8.856;2023-06-10T18:18:10;8.20;;;5.65;;
51020;SDS011;38907;45.562;8.856;2023-06-10T18:23:12;20.77;;;12.75;;
51020;SDS011;38907;45.562;8.856;2023-06-10T18:28:14;64.00;;;38.35;;
51020;SDS011;38907;45.562;8.856;2023-06-10T18:33:17;30.60;;;18.80;;
51020;SDS011;38907;45.562;8.856;2023-06-10T18:38:19;22.45;;;14.07;;
51020;SDS011;38907;45.562;8.856;2023-06-10T18:43:21;13.18;;;10.15;;
51020;SDS011;38907;45.562;8.856;2023-06-10T18:48:24;10.48;;;8.30;;
51020;SDS011;38907;45.562;8.856;2023-06-10T18:53:26;8.15;;;6.32;;
51020;SDS011;38907;45.562;8.856;2023-06-10T18:58:29;21.33;;;14.32;;
51020;SDS011;38907;45.562;8.856;2023-06-10T19:03:34;10.40;;;7.13;;
51020;SDS011;38907;45.562;8.856;2023-06-10T19:08:35;15.98;;;6.88;;
51020;SDS011;38907;45.562;8.856;2023-06-10T19:13:37;23.98;;;14.07;;
51020;SDS011;38907;45.562;8.856;2023-06-10T19:18:42;24.23;;;15.68;;
51020;SDS011;38907;45.562;8.856;2023-06-10T19:23:43;21.77;;;13.30;;
51020;SDS011;38907;45.562;8.856;2023-06-10T19:33:49;10.13;;;7.05;;
51020;SDS011;38907;45.562;8.856;2023-06-10T19:38:51;7.28;;;6.07;;
51020;SDS011;38907;45.562;8.856;2023-06-10T19:43:53;9.30;;;6.53;;
51020;SDS011;38907;45.562;8.856;2023-06-10T19:48:56;8.35;;;6.40;;
51020;SDS011;38907;45.562;8.856;2023-06-10T19:53:58;10.27;;;5.80;;
51020;SDS011;38907;45.562;8.856;2023-06-10T19:59:00;8.57;;;6.38;;
51020;SDS011;38907;45.562;8.856;2023-06-10T20:04:03;8.85;;;7.30;;
51020;SDS011;38907;45.562;8.856;2023-06-10T20:09:05;16.20;;;6.85;;
51020;SDS011;38907;45.562;8.856;2023-06-10T20:14:07;10.57;;;6.72;;
51020;SDS011;38907;45.562;8.856;2023-06-10T20:19:11;8.95;;;7.15;;
51020;SDS011;38907;45.562;8.856;2023-06-10T20:24:12;11.57;;;7.28;;
51020;SDS011;38907;45.562;8.856;2023-06-10T20:29:14;11.00;;;7.30;;
51020;SDS011;38907;45.562;8.856;2023-06-10T20:34:18;9.05;;;7.40;;
51020;SDS011;38907;45.562;8.856;2023-06-10T20:39:20;11.00;;;8.52;;
51020;SDS011;38907;45.562;8.856;2023-06-10T20:44:21;10.95;;;7.57;;
51020;SDS011;38907;45.562;8.856;2023-06-10T20:49:25;9.65;;;7.43;;
51020;SDS011;38907;45.562;8.856;2023-06-10T20:54:27;14.25;;;7.28;;
51020;SDS011;38907;45.562;8.856;2023-06-10T20:59:29;13.88;;;7.95;;
51020;SDS011;38907;45.562;8.856;2023-06-10T21:04:32;9.70;;;7.82;;
51020;SDS011;38907;45.562;8.856;2023-06-10T21:09:34;11.23;;;8.05;;
51020;SDS011;38907;45.562;8.856;2023-06-10T21:14:35;11.45;;;7.35;;
51020;SDS011;38907;45.562;8.856;2023-06-10T21:19:39;10.25;;;7.05;;
51020;SDS011;38907;45.562;8.856;2023-06-10T21:24:41;8.43;;;7.13;;
51020;SDS011;38907;45.562;8.856;2023-06-10T21:29:43;52.47;;;10.02;;
51020;SDS011;38907;45.562;8.856;2023-06-10T21:34:46;17.95;;;7.53;;
51020;SDS011;38907;45.562;8.856;2023-06-10T21:39:48;16.25;;;7.63;;
51020;SDS011;38907;45.562;8.856;2023-06-10T21:44:50;8.93;;;7.82;;
51020;SDS011;38907;45.562;8.856;2023-06-10T21:49:53;10.52;;;7.78;;
51020;SDS011;38907;45.562;8.856;2023-06-10T21:54:55;11.25;;;7.60;;
51020;SDS011;38907;45.562;8.856;2023-06-10T21:59:57;14.50;;;8.45;;
51020;SDS011;38907;45.562;8.856;2023-06-10T22:05:01;14.50;;;8.63;;
51020;SDS011;38907;45.562;8.856;2023-06-10T22:10:03;16.30;;;9.27;;
51020;SDS011;38907;45.562;8.856;2023-06-10T22:20:09;10.40;;;7.80;;
51020;SDS011;38907;45.562;8.856;2023-06-10T22:25:12;14.85;;;9.35;;
51020;SDS011;38907;45.562;8.856;2023-06-10T22:30:15;12.38;;;10.07;;
51020;SDS011;38907;45.562;8.856;2023-06-10T22:35:18;15.57;;;10.17;;
51020;SDS011;38907;45.562;8.856;2023-06-10T22:40:20;12.60;;;10.30;;
51020;SDS011;38907;45.562;8.856;2023-06-10T22:45:22;10.97;;;9.60;;
51020;SDS011;38907;45.562;8.856;2023-06-10T22:50:25;12.07;;;10.32;;
51020;SDS011;38907;45.562;8.856;2023-06-10T22:55:27;15.45;;;10.70;;
51020;SDS011;38907;45.562;8.856;2023-06-10T23:00:29;14.80;;;10.10;;
51020;SDS011;38907;45.562;8.856;2023-06-10T23:05:32;12.60;;;10.43;;
51020;SDS011;38907;45.562;8.856;2023-06-10T23:10:34;13.30;;;11.07;;
51020;SDS011;38907;45.562;8.856;2023-06-10T23:15:36;14.07;;;11.50;;
51020;SDS011;38907;45.562;8.856;2023-06-10T23:20:39;15.30;;;10.93;;
51020;SDS011;38907;45.562;8.856;2023-06-10T23:25:41;14.27;;;11.27;;
51020;SDS011;38907;45.562;8.856;2023-06-10T23:30:44;14.20;;;10.40;;
51020;SDS011;38907;45.562;8.856;2023-06-10T23:35:48;15.90;;;11.50;;
51020;SDS011;38907;45.562;8.856;2023-06-10T23:40:50;14.55;;;11.10;;
51020;SDS011;38907;45.562;8.856;2023-06-10T23:45:51;11.63;;;10.10;;
51020;SDS011;38907;45.562;8.856;2023-06-10T23:50:55;13.87;;;10.30;;
51020;SDS011;38907;45.562;8.856;2023-06-10T23:56:00;11.70;;;9.85;;
